X  Schlie├čen METAR Luftfahrt Wetterdaten     LYNI Nis Airport
Temperatur
61°F Temperatur
52°F Taupunkt
72% Feuchtigkeit



Wind
0 MPS
0 KM/S
0 M/S
0 KTS



Kein Wind
N
Aktuelle Wetterlage

Klar Klar
Luftdruck 1020.92 (hPa) - 30.15 (inHg)
Sichtweite 6.2 (Meile) - 10 (Km)
Flughafen
Flughafen Code LYNI

Position : Nis Airport
Entfernung: 63 (mi)

Metar:
LYNI 282130Z 00000KT CAVOK 16/11 Q1021 NOSIG

Zeit: 28-09-2023 23:30 CEST